createdAt,value
2019-01-21T00:03:20.811Z,68.20
2019-01-21T00:05:20.792Z,68.12
2019-01-21T00:09:20.784Z,68.08
2019-01-21T00:11:20.848Z,67.86
2019-01-21T00:15:20.805Z,67.79
2019-01-21T00:17:22.491Z,67.83
2019-01-21T00:21:25.328Z,67.81
2019-01-21T00:23:20.799Z,67.76
2019-01-21T00:27:20.814Z,67.89
2019-01-21T00:29:28.259Z,68.10
2019-01-21T00:33:20.822Z,67.85
2019-01-21T00:35:25.806Z,67.87
2019-01-21T00:39:25.428Z,68.08
2019-01-21T00:41:29.735Z,67.60
2019-01-21T00:45:21.897Z,67.63
2019-01-21T00:47:20.778Z,67.59
2019-01-21T00:51:20.819Z,67.63
2019-01-21T00:53:20.788Z,67.81
2019-01-21T00:57:20.788Z,67.80
2019-01-21T00:59:25.206Z,67.79
2019-01-21T01:03:20.802Z,67.69
2019-01-21T01:05:20.780Z,67.74
2019-01-21T01:09:20.805Z,67.85
2019-01-21T01:11:20.813Z,67.79
2019-01-21T01:15:20.818Z,67.51
2019-01-21T01:17:25.868Z,67.61
2019-01-21T01:21:20.891Z,67.69
2019-01-21T01:23:20.863Z,67.50
2019-01-21T01:27:20.830Z,67.59
2019-01-21T01:29:25.973Z,67.40
2019-01-21T01:33:20.819Z,67.50
2019-01-21T01:35:20.832Z,67.51
2019-01-21T01:39:20.864Z,67.49
2019-01-21T01:41:20.856Z,67.47
2019-01-21T01:45:20.816Z,67.46
2019-01-21T01:47:20.820Z,67.32
2019-01-21T01:51:20.792Z,67.53
2019-01-21T01:53:20.848Z,67.42
2019-01-21T01:57:20.830Z,67.58
2019-01-21T01:59:25.214Z,67.45
2019-01-21T02:03:21.752Z,67.37
2019-01-21T02:05:20.861Z,67.51
2019-01-21T02:09:26.070Z,67.47
2019-01-21T02:11:20.842Z,67.41
2019-01-21T02:15:26.037Z,67.48
2019-01-21T02:17:20.919Z,67.02
2019-01-21T02:21:20.838Z,67.58
2019-01-21T02:23:20.824Z,67.30
2019-01-21T02:27:20.869Z,67.38
2019-01-21T02:29:20.839Z,67.28
2019-01-21T02:33:20.855Z,66.91
2019-01-21T02:35:24.613Z,67.44
2019-01-21T02:39:20.850Z,67.11
2019-01-21T02:41:24.980Z,67.36
2019-01-21T02:45:25.848Z,67.15
2019-01-21T02:47:20.853Z,67.05
2019-01-21T02:51:20.834Z,67.39
2019-01-21T02:53:20.875Z,67.28
2019-01-21T02:57:20.871Z,67.07
2019-01-21T02:59:20.970Z,67.00
2019-01-21T03:03:20.841Z,66.90
2019-01-21T03:05:20.822Z,67.24
2019-01-21T03:09:20.854Z,67.01
2019-01-21T03:11:20.839Z,66.84
2019-01-21T03:15:20.856Z,66.87
2019-01-21T03:17:20.827Z,66.82
2019-01-21T03:21:20.850Z,66.95
2019-01-21T03:23:20.863Z,67.00
2019-01-21T03:27:20.865Z,66.88
2019-01-21T03:29:26.073Z,66.96
2019-01-21T03:33:20.846Z,66.81
2019-01-21T03:37:20.853Z,66.49
2019-01-21T03:39:20.835Z,66.77
2019-01-21T03:43:20.845Z,66.83
2019-01-21T03:45:25.242Z,67.09
2019-01-21T03:49:20.854Z,66.45
2019-01-21T03:51:20.853Z,66.89
2019-01-21T03:55:30.027Z,66.89
2019-01-21T03:57:20.857Z,67.19
2019-01-21T04:01:20.851Z,66.73
2019-01-21T04:03:22.183Z,66.67
2019-01-21T04:07:25.911Z,66.56
2019-01-21T04:09:20.862Z,66.89
2019-01-21T04:13:20.892Z,66.64
2019-01-21T04:15:20.861Z,66.61
2019-01-21T04:19:25.814Z,66.76
2019-01-21T04:21:20.852Z,66.75
2019-01-21T04:25:20.822Z,66.74
2019-01-21T04:27:20.839Z,66.49
2019-01-21T04:31:20.876Z,66.84
2019-01-21T04:33:20.873Z,66.45
2019-01-21T04:37:20.871Z,66.64
2019-01-21T04:39:20.876Z,66.78
2019-01-21T04:43:20.889Z,66.81
2019-01-21T04:45:20.890Z,66.60
2019-01-21T04:49:20.840Z,66.66
2019-01-21T04:51:20.893Z,66.74
2019-01-21T04:55:22.525Z,66.49
2019-01-21T04:57:25.479Z,66.71
2019-01-21T05:01:20.858Z,66.32
2019-01-21T05:03:20.849Z,66.48
2019-01-21T05:07:20.843Z,66.64
2019-01-21T05:09:20.883Z,66.54
2019-01-21T05:13:20.835Z,66.64
2019-01-21T05:15:20.846Z,66.68
2019-01-21T05:21:20.893Z,66.46
2019-01-21T05:23:20.896Z,66.26
2019-01-21T05:27:20.874Z,66.51
2019-01-21T05:29:20.877Z,66.67
2019-01-21T05:33:20.883Z,66.37
2019-01-21T05:35:20.873Z,66.61
2019-01-21T05:39:20.861Z,66.56
2019-01-21T05:41:20.880Z,66.53
2019-01-21T05:45:20.905Z,66.47
2019-01-21T05:47:24.780Z,66.28
2019-01-21T05:51:20.909Z,66.40
2019-01-21T05:53:22.839Z,66.54
2019-01-21T05:57:20.871Z,66.46
2019-01-21T05:59:20.888Z,66.60
2019-01-21T06:03:20.852Z,66.19
2019-01-21T06:05:20.887Z,66.58
2019-01-21T06:09:20.891Z,66.72
2019-01-21T06:11:25.962Z,66.40
2019-01-21T06:17:25.452Z,66.44
2019-01-21T06:19:25.291Z,66.19
2019-01-21T06:23:20.870Z,66.20
2019-01-21T06:25:25.888Z,66.35
2019-01-21T06:29:20.851Z,66.49
2019-01-21T06:31:25.831Z,66.29
2019-01-21T06:35:25.552Z,66.36
2019-01-21T06:37:20.876Z,66.09
2019-01-21T06:41:20.864Z,66.39
2019-01-21T06:43:26.044Z,66.49
2019-01-21T06:47:20.877Z,66.13
2019-01-21T06:49:20.864Z,66.11
2019-01-21T06:53:20.864Z,66.10
2019-01-21T06:55:20.865Z,66.37
2019-01-21T06:59:20.874Z,66.31
2019-01-21T07:01:20.902Z,65.94
2019-01-21T07:05:25.905Z,66.28
2019-01-21T07:07:26.012Z,66.33
2019-01-21T07:11:20.859Z,66.13
2019-01-21T07:13:20.873Z,66.19
2019-01-21T07:17:25.871Z,66.20
2019-01-21T07:19:20.868Z,66.16
2019-01-21T07:23:20.895Z,66.27
2019-01-21T07:25:20.894Z,66.34
2019-01-21T07:29:20.874Z,66.32
2019-01-21T07:31:25.520Z,66.16
2019-01-21T07:35:20.876Z,66.01
2019-01-21T07:37:27.700Z,66.10
2019-01-21T07:43:20.885Z,65.95
2019-01-21T07:45:25.867Z,66.12
2019-01-21T07:49:25.875Z,66.01
2019-01-21T07:51:20.869Z,66.09
2019-01-21T07:55:20.906Z,66.16
2019-01-21T07:57:20.864Z,65.89
2019-01-21T08:01:25.506Z,65.86
2019-01-21T08:03:25.847Z,65.67
2019-01-21T08:07:20.876Z,65.97
2019-01-21T08:09:26.113Z,65.94
2019-01-21T08:13:20.916Z,66.00
2019-01-21T08:15:20.883Z,65.69
2019-01-21T08:19:24.344Z,66.03
2019-01-21T08:21:20.883Z,65.83
2019-01-21T08:25:20.868Z,65.90
2019-01-21T08:27:25.552Z,66.21
2019-01-21T08:31:20.858Z,66.02
2019-01-21T08:33:20.949Z,66.11
2019-01-21T08:37:30.146Z,65.74
2019-01-21T08:39:20.927Z,66.07
2019-01-21T08:43:20.878Z,66.01
2019-01-21T08:45:20.921Z,66.33
2019-01-21T08:49:20.891Z,66.00
2019-01-21T08:51:20.918Z,66.29
2019-01-21T08:55:29.935Z,66.10
2019-01-21T08:57:20.892Z,66.40
2019-01-21T09:01:25.559Z,66.46
2019-01-21T09:03:20.914Z,66.59
2019-01-21T09:07:25.964Z,66.40
2019-01-21T09:09:20.924Z,66.33
2019-01-21T09:13:20.890Z,66.38
2019-01-21T09:15:20.913Z,66.23
2019-01-21T09:19:20.875Z,66.44
2019-01-21T09:21:20.919Z,66.41
2019-01-21T09:25:20.913Z,66.37
2019-01-21T09:27:20.953Z,66.72
2019-01-21T09:31:20.908Z,66.73
2019-01-21T09:33:25.578Z,66.71
2019-01-21T09:37:20.940Z,66.82
2019-01-21T09:39:20.938Z,66.95
2019-01-21T09:43:20.912Z,66.54
2019-01-21T09:45:23.276Z,66.74
2019-01-21T09:49:20.902Z,66.19
2019-01-21T09:51:25.362Z,66.28
2019-01-21T09:55:26.080Z,66.33
2019-01-21T09:57:20.913Z,66.16
2019-01-21T10:01:20.904Z,66.68
2019-01-21T10:03:20.889Z,66.53
2019-01-21T10:07:20.915Z,66.61
2019-01-21T10:09:20.930Z,66.44
2019-01-21T10:13:20.931Z,66.77
2019-01-21T10:15:21.702Z,66.66
2019-01-21T10:19:20.952Z,66.44
2019-01-21T10:21:20.895Z,66.32
2019-01-21T10:25:25.939Z,66.35
2019-01-21T10:27:20.936Z,66.58
2019-01-21T10:31:20.956Z,66.27
2019-01-21T10:33:20.925Z,66.28
2019-01-21T10:37:21.708Z,66.22
2019-01-21T10:39:22.044Z,66.41
2019-01-21T10:43:25.576Z,66.63
2019-01-21T10:45:24.627Z,66.56
2019-01-21T10:49:20.938Z,66.54
2019-01-21T10:51:20.934Z,66.37
2019-01-21T10:55:20.968Z,66.46
2019-01-21T10:57:20.924Z,66.54
2019-01-21T11:01:20.933Z,66.63
2019-01-21T11:03:20.933Z,66.44
2019-01-21T11:09:26.480Z,66.83
2019-01-21T11:11:20.927Z,66.96
2019-01-21T11:15:20.929Z,66.62
2019-01-21T11:17:20.918Z,66.92
2019-01-21T11:21:20.895Z,66.93
2019-01-21T11:23:20.965Z,66.87
2019-01-21T11:27:20.942Z,66.64
2019-01-21T11:29:21.742Z,66.67
2019-01-21T11:33:20.909Z,66.77
2019-01-21T11:39:25.886Z,66.05
2019-01-21T11:41:20.923Z,66.25
2019-01-21T11:47:20.939Z,66.26
2019-01-21T11:49:20.948Z,66.26
2019-01-21T11:53:25.509Z,66.20
2019-01-21T11:55:25.870Z,66.27
2019-01-21T11:59:26.130Z,66.07
2019-01-21T12:01:25.897Z,65.97
2019-01-21T12:05:20.909Z,66.13
2019-01-21T12:07:20.926Z,65.85
2019-01-21T12:11:25.095Z,66.05
2019-01-21T12:13:25.883Z,66.17
2019-01-21T12:17:25.910Z,66.29
2019-01-21T12:19:22.029Z,66.08
2019-01-21T12:25:22.059Z,66.42
2019-01-21T12:27:22.079Z,66.20
2019-01-21T12:31:20.942Z,66.54
2019-01-21T12:33:20.945Z,66.43
2019-01-21T12:37:20.959Z,66.45
2019-01-21T12:39:25.373Z,66.47
2019-01-21T12:43:20.933Z,66.39
2019-01-21T12:45:25.973Z,66.51
2019-01-21T12:49:25.905Z,66.56
2019-01-21T12:51:25.917Z,66.43
2019-01-21T12:55:21.011Z,66.73
2019-01-21T12:57:21.902Z,66.86
2019-01-21T13:01:25.629Z,67.13
2019-01-21T13:03:20.945Z,66.99
2019-01-21T13:07:20.938Z,67.02
2019-01-21T13:09:24.125Z,67.01
2019-01-21T13:13:21.114Z,66.72
2019-01-21T13:15:26.155Z,66.78
2019-01-21T13:19:22.018Z,66.99
2019-01-21T13:21:21.133Z,67.04
2019-01-21T13:27:20.961Z,66.84
2019-01-21T13:29:20.998Z,66.93
2019-01-21T13:35:20.964Z,67.01
2019-01-21T13:37:20.996Z,66.99
2019-01-21T13:41:24.690Z,67.22
2019-01-21T13:43:20.975Z,67.31
2019-01-21T13:47:20.972Z,67.55
2019-01-21T13:49:25.971Z,67.31
2019-01-21T13:53:20.959Z,67.40
2019-01-21T13:55:26.016Z,67.48
2019-01-21T13:59:25.772Z,67.48
2019-01-21T14:01:26.011Z,67.50
2019-01-21T14:05:20.974Z,67.77
2019-01-21T14:07:26.141Z,68.09
2019-01-21T14:11:20.961Z,67.84
2019-01-21T14:13:26.363Z,67.67
2019-01-21T14:17:20.987Z,67.46
2019-01-21T14:19:26.360Z,68.14
2019-01-21T14:23:26.067Z,68.18
2019-01-21T14:25:20.982Z,67.89
2019-01-21T14:29:26.002Z,68.13
2019-01-21T14:31:25.921Z,68.06
2019-01-21T14:35:20.983Z,67.98
2019-01-21T14:37:21.000Z,68.33
2019-01-21T14:41:26.003Z,68.18
2019-01-21T14:43:20.975Z,68.35
2019-01-21T14:47:26.036Z,68.42
2019-01-21T14:49:20.961Z,68.46
2019-01-21T14:53:21.008Z,68.58
2019-01-21T14:55:25.390Z,68.54
2019-01-21T14:59:20.999Z,68.54
2019-01-21T15:01:20.961Z,68.90
2019-01-21T15:05:20.983Z,68.96
2019-01-21T15:07:25.941Z,69.16
2019-01-21T15:11:26.008Z,69.01
2019-01-21T15:13:21.103Z,68.93
2019-01-21T15:17:21.604Z,68.84
2019-01-21T15:19:21.353Z,68.94
2019-01-21T15:23:20.981Z,69.26
2019-01-21T15:25:25.946Z,68.98
2019-01-21T15:29:21.009Z,69.34
2019-01-21T15:31:21.006Z,69.71
2019-01-21T15:35:21.024Z,69.32
2019-01-21T15:37:20.987Z,69.27
2019-01-21T15:41:24.711Z,69.40
2019-01-21T15:43:26.116Z,69.50
2019-01-21T15:47:21.074Z,69.62
2019-01-21T15:49:20.997Z,69.73
2019-01-21T15:53:26.002Z,69.67
2019-01-21T15:55:26.091Z,69.77
2019-01-21T15:59:26.187Z,69.81
2019-01-21T16:01:25.938Z,70.03
2019-01-21T16:05:20.975Z,69.91
2019-01-21T16:07:21.021Z,69.98
2019-01-21T16:11:26.204Z,70.13
2019-01-21T16:13:21.009Z,70.58
2019-01-21T16:17:21.024Z,70.38
2019-01-21T16:19:25.967Z,70.17
2019-01-21T16:23:20.987Z,69.91
2019-01-21T16:25:21.019Z,70.41
2019-01-21T16:29:20.992Z,70.39
2019-01-21T16:31:25.944Z,70.55
2019-01-21T16:35:20.987Z,70.63
2019-01-21T16:37:25.983Z,70.24
2019-01-21T16:41:20.987Z,70.59
2019-01-21T16:43:21.026Z,70.46
2019-01-21T16:47:21.011Z,70.40
2019-01-21T16:49:20.980Z,70.36
2019-01-21T16:53:21.007Z,70.43
2019-01-21T16:55:21.013Z,70.46
2019-01-21T16:59:21.033Z,71.18
2019-01-21T17:01:21.042Z,70.66
2019-01-21T17:05:25.952Z,70.61
2019-01-21T17:07:27.816Z,70.65
2019-01-21T17:11:21.028Z,70.58
2019-01-21T17:13:26.000Z,70.64
2019-01-21T17:17:21.005Z,70.83
2019-01-21T17:19:21.025Z,70.57
2019-01-21T17:23:26.006Z,70.80
2019-01-21T17:25:25.975Z,70.95
2019-01-21T17:29:22.384Z,70.99
2019-01-21T17:31:21.030Z,70.73
2019-01-21T17:35:26.167Z,70.96
2019-01-21T17:37:26.238Z,71.09
2019-01-21T17:41:21.067Z,70.88
2019-01-21T17:43:29.410Z,71.06
2019-01-21T17:47:21.054Z,70.96
2019-01-21T17:49:22.476Z,70.81
2019-01-21T17:53:26.033Z,70.86
2019-01-21T17:55:23.851Z,70.96
2019-01-21T17:59:21.006Z,70.93
2019-01-21T18:01:21.031Z,70.98
2019-01-21T18:05:23.014Z,71.43
2019-01-21T18:07:28.989Z,70.76
2019-01-21T18:11:21.062Z,70.83
2019-01-21T18:13:21.031Z,70.97
2019-01-21T18:17:21.284Z,71.03
2019-01-21T18:19:25.509Z,70.95
2019-01-21T18:23:25.630Z,70.83
2019-01-21T18:25:21.040Z,70.92
2019-01-21T18:29:21.016Z,70.93
2019-01-21T18:31:21.017Z,70.96
2019-01-21T18:35:21.931Z,71.01
2019-01-21T18:37:21.280Z,70.86
2019-01-21T18:41:25.770Z,70.88
2019-01-21T18:43:21.033Z,70.91
2019-01-21T18:47:21.018Z,71.08
2019-01-21T18:49:22.896Z,71.18
2019-01-21T18:53:21.038Z,70.94
2019-01-21T18:55:24.949Z,70.94
2019-01-21T18:59:21.049Z,71.08
2019-01-21T19:01:23.437Z,71.00
2019-01-21T19:05:29.186Z,70.97
2019-01-21T19:07:23.122Z,70.99
2019-01-21T19:11:25.441Z,71.12
2019-01-21T19:13:21.068Z,71.02
2019-01-21T19:17:21.005Z,70.73
2019-01-21T19:19:21.075Z,71.09
2019-01-21T19:23:21.042Z,70.92
2019-01-21T19:25:21.050Z,71.07
2019-01-21T19:29:21.035Z,70.96
2019-01-21T19:31:22.275Z,70.80
2019-01-21T19:35:26.024Z,70.99
2019-01-21T19:37:21.015Z,71.09
2019-01-21T19:43:21.074Z,70.74
2019-01-21T19:45:25.979Z,70.96
2019-01-21T19:49:25.561Z,70.99
2019-01-21T19:51:21.008Z,71.14
2019-01-21T19:55:21.083Z,71.09
2019-01-21T19:57:21.019Z,70.88
2019-01-21T20:01:21.920Z,71.13
2019-01-21T20:03:21.059Z,71.04
2019-01-21T20:07:21.049Z,70.94
2019-01-21T20:09:21.035Z,70.75
2019-01-21T20:13:26.061Z,70.89
2019-01-21T20:15:21.051Z,71.12
2019-01-21T20:19:25.995Z,71.20
2019-01-21T20:21:21.070Z,71.03
2019-01-21T20:25:21.077Z,71.13
2019-01-21T20:27:26.063Z,71.08
2019-01-21T20:31:21.046Z,71.19
2019-01-21T20:33:21.052Z,71.11
2019-01-21T20:37:21.056Z,71.08
2019-01-21T20:39:21.062Z,71.09
2019-01-21T20:43:21.065Z,71.34
2019-01-21T20:45:21.025Z,70.83
2019-01-21T20:49:21.072Z,71.02
2019-01-21T20:51:21.075Z,70.87
2019-01-21T20:55:21.066Z,71.01
2019-01-21T20:57:21.060Z,71.01
2019-01-21T21:01:21.053Z,71.05
2019-01-21T21:03:21.070Z,71.18
2019-01-21T21:07:21.033Z,71.11
2019-01-21T21:09:25.133Z,71.00
2019-01-21T21:13:21.064Z,71.08
2019-01-21T21:15:21.073Z,70.77
2019-01-21T21:19:21.070Z,71.04
2019-01-21T21:21:21.077Z,70.71
2019-01-21T21:25:24.993Z,71.10
2019-01-21T21:27:21.037Z,70.81
2019-01-21T21:31:21.069Z,71.01
2019-01-21T21:33:21.043Z,70.87
2019-01-21T21:37:21.052Z,70.83
2019-01-21T21:39:21.083Z,70.87
2019-01-21T21:43:21.068Z,70.65
2019-01-21T21:45:26.155Z,70.71
2019-01-21T21:49:21.057Z,70.99
2019-01-21T21:51:26.069Z,70.66
2019-01-21T21:55:21.086Z,70.69
2019-01-21T21:57:21.053Z,70.84
2019-01-21T22:01:24.055Z,70.80
2019-01-21T22:03:25.775Z,70.57
2019-01-21T22:07:21.075Z,70.86
2019-01-21T22:09:21.112Z,70.97
2019-01-21T22:13:26.111Z,70.68
2019-01-21T22:15:21.086Z,70.81
2019-01-21T22:19:21.075Z,70.61
2019-01-21T22:21:21.095Z,70.51
2019-01-21T22:25:21.103Z,70.23
2019-01-21T22:27:21.075Z,70.61
2019-01-21T22:31:21.099Z,70.58
2019-01-21T22:33:21.078Z,70.55
2019-01-21T22:37:21.117Z,70.51
2019-01-21T22:39:21.130Z,70.07
2019-01-21T22:43:21.125Z,70.45
2019-01-21T22:45:21.087Z,70.24
2019-01-21T22:49:21.090Z,70.39
2019-01-21T22:51:21.052Z,70.19
2019-01-21T22:55:26.060Z,70.20
2019-01-21T22:57:21.079Z,70.12
2019-01-21T23:01:26.080Z,70.00
2019-01-21T23:03:21.059Z,70.35
2019-01-21T23:07:21.100Z,70.34
2019-01-21T23:09:21.100Z,70.46
2019-01-21T23:13:21.077Z,70.40
2019-01-21T23:15:21.099Z,70.37
2019-01-21T23:19:25.684Z,70.27
2019-01-21T23:21:21.063Z,70.26
2019-01-21T23:25:21.071Z,69.57
2019-01-21T23:27:21.107Z,70.17
2019-01-21T23:31:21.092Z,69.95
2019-01-21T23:33:21.130Z,69.69
2019-01-21T23:37:21.092Z,69.70
2019-01-21T23:39:21.057Z,70.08
2019-01-21T23:43:21.106Z,69.77
2019-01-21T23:45:21.088Z,69.73
2019-01-21T23:49:21.110Z,69.80
2019-01-21T23:51:21.079Z,70.05
2019-01-21T23:55:26.125Z,69.56
2019-01-21T23:57:21.094Z,69.63
